map of EVN home
EVN - Airport
Location
City:  Yerevan, Armenia
Name:Zvartnots International Airport
Old (Alt.):Zapadny
ICAO:UDYZ
IATA:EVN

Details
Type:Airport (Aerodrome, Airfield)
Use:Public/Civil, International (customs port of entry)
Latitude:4008'50"N (40.147275)
Longitude:4423'45"E (44.395881)
Datum:WGS 1984
Elevation:2838 ft (865 m)
Variation:6.28E (WMM2015 magnetic declination)
0.08 annual change
Runways:1
Longest:12629 × 184 ft (3849 × 56 m), paved

Time
Time Zone:UTC+4 (DST+5)

Weather
METAR:UDYZ 170900Z 14001KT 1800 R09/1800U BR SCT002 03/01 Q1021 R09/010070 TEMPO 0200 FG VV001
TAF:UDYZ 170503Z 1706/1806 22006KT 2000 BR SCT040
TEMPO 1706/1708 0600 -FZFG VV003

Related Locations
Nearby:
Farthest:GMR: 11253 mi / 18111 km
Mangareva [Totegegie], Gambier Islands, PF

Find:

   beyond  
but within

Other Information
Maps:
NOTAMs:
Links:
Sources:

  
  • flag of Armenia
  

Sectional Chart

Flight Planning
at skyvector.com

Satellite Image

Google Maps Satellite view

 

Copyright © 2004-2018 Karl L. Swartz. All rights reserved.
The Great Circle Mapper name and logo are trademarks of the Great Circle Mapper.
All other trademarks mentioned herein belong to their respective owners.
Please see credits for attibutions and further copyright information.

  Follow gcmap on Facebook Follow gcmap on Twitter Follow gcmap on Google+ GCmap on LinkedIn

hCard Microformat

Geo Microformat